createdAt,value
2023-04-03T00:00:44.181Z,535.00
2023-04-03T00:01:44.234Z,533.00
2023-04-03T00:02:44.483Z,532.00
2023-04-03T00:03:44.284Z,542.00
2023-04-03T00:04:44.343Z,536.00
2023-04-03T00:05:44.347Z,537.00
2023-04-03T00:06:44.386Z,517.00
2023-04-03T00:07:44.411Z,528.00
2023-04-03T00:08:44.460Z,519.00
2023-04-03T00:09:44.476Z,519.00
2023-04-03T00:10:44.514Z,534.00
2023-04-03T00:11:44.546Z,529.00
2023-04-03T00:12:44.575Z,535.00
2023-04-03T00:13:44.683Z,536.00
2023-04-03T00:14:44.648Z,530.00
2023-04-03T00:15:44.685Z,520.00
2023-04-03T00:16:44.881Z,536.00
2023-04-03T00:17:44.786Z,514.00
2023-04-03T00:18:44.775Z,514.00
2023-04-03T00:19:44.818Z,535.00
2023-04-03T00:20:44.868Z,528.00
2023-04-03T00:21:44.890Z,530.00
2023-04-03T00:22:44.926Z,529.00
2023-04-03T00:23:44.960Z,527.00
2023-04-03T00:24:44.997Z,523.00
2023-04-03T00:25:45.024Z,524.00
2023-04-03T00:26:45.052Z,534.00
2023-04-03T00:27:45.092Z,530.00
2023-04-03T00:28:45.128Z,531.00
2023-04-03T00:29:45.158Z,541.00
2023-04-03T00:30:45.211Z,530.00
2023-04-03T00:31:45.244Z,522.00
2023-04-03T00:32:45.385Z,521.00
2023-04-03T00:33:45.638Z,529.00
2023-04-03T00:34:45.332Z,513.00
2023-04-03T00:35:45.413Z,525.00
2023-04-03T00:36:45.449Z,532.00
2023-04-03T00:37:45.429Z,527.00
2023-04-03T00:38:45.462Z,522.00
2023-04-03T00:39:45.484Z,528.00
2023-04-03T00:40:45.530Z,533.00
2023-04-03T00:41:45.540Z,524.00
2023-04-03T00:42:45.571Z,533.00
2023-04-03T00:43:45.596Z,522.00
2023-04-03T00:44:45.642Z,521.00
2023-04-03T00:45:45.651Z,531.00
2023-04-03T00:46:45.712Z,539.00
2023-04-03T00:47:45.729Z,520.00
2023-04-03T00:48:45.858Z,528.00
2023-04-03T00:49:45.778Z,516.00
2023-04-03T00:50:45.796Z,521.00
2023-04-03T00:51:45.824Z,532.00
2023-04-03T00:52:45.856Z,517.00
2023-04-03T00:53:45.890Z,517.00
2023-04-03T00:54:45.923Z,530.00
2023-04-03T00:55:45.940Z,537.00
2023-04-03T00:56:45.961Z,519.00
2023-04-03T00:57:45.997Z,532.00
2023-04-03T00:58:46.018Z,518.00
2023-04-03T00:59:46.043Z,518.00
2023-04-03T01:00:46.080Z,524.00
2023-04-03T01:01:46.176Z,522.00
2023-04-03T01:02:46.220Z,524.00
2023-04-03T01:03:46.174Z,517.00
2023-04-03T01:04:46.245Z,527.00
2023-04-03T01:05:46.192Z,515.00
2023-04-03T01:06:46.210Z,538.00
2023-04-03T01:07:46.258Z,537.00
2023-04-03T01:08:46.259Z,521.00
2023-04-03T01:09:46.280Z,520.00
2023-04-03T01:10:46.307Z,524.00
2023-04-03T01:11:46.336Z,519.00
2023-04-03T01:12:47.184Z,535.00
2023-04-03T01:13:46.386Z,539.00
2023-04-03T01:14:46.391Z,521.00
2023-04-03T01:15:46.463Z,520.00
2023-04-03T01:16:46.658Z,534.00
2023-04-03T01:17:46.576Z,528.00
2023-04-03T01:18:46.469Z,532.00
2023-04-03T01:19:46.494Z,540.00
2023-04-03T01:20:46.510Z,523.00
2023-04-03T01:21:46.535Z,516.00
2023-04-03T01:22:46.570Z,522.00
2023-04-03T01:23:46.582Z,523.00
2023-04-03T01:24:46.618Z,514.00
2023-04-03T01:25:46.639Z,527.00
2023-04-03T01:26:46.664Z,532.00
2023-04-03T01:27:47.160Z,525.00
2023-04-03T01:28:46.716Z,524.00
2023-04-03T01:29:46.733Z,528.00
2023-04-03T01:30:46.837Z,528.00
2023-04-03T01:31:46.861Z,525.00
2023-04-03T01:32:47.222Z,521.00
2023-04-03T01:33:46.881Z,538.00
2023-04-03T01:34:46.878Z,539.00
2023-04-03T01:35:46.915Z,524.00
2023-04-03T01:36:46.922Z,520.00
2023-04-03T01:37:46.955Z,539.00
2023-04-03T01:38:47.018Z,534.00
2023-04-03T01:39:47.005Z,545.00
2023-04-03T01:40:47.034Z,526.00
2023-04-03T01:41:47.058Z,522.00
2023-04-03T01:42:47.086Z,527.00
2023-04-03T01:43:47.114Z,539.00
2023-04-03T01:44:47.144Z,533.00
2023-04-03T01:45:47.193Z,544.00
2023-04-03T01:46:47.189Z,530.00
2023-04-03T01:47:47.263Z,524.00
2023-04-03T01:48:47.233Z,537.00
2023-04-03T01:49:47.260Z,530.00
2023-04-03T01:50:47.281Z,525.00
2023-04-03T01:51:47.304Z,528.00
2023-04-03T01:52:47.328Z,528.00
2023-04-03T01:53:47.334Z,534.00
2023-04-03T01:54:47.352Z,536.00
2023-04-03T01:55:47.372Z,533.00
2023-04-03T01:56:47.399Z,530.00
2023-04-03T01:57:47.401Z,520.00
2023-04-03T01:58:47.470Z,534.00
2023-04-03T01:59:47.484Z,526.00
2023-04-03T02:00:47.500Z,515.00
2023-04-03T02:01:47.474Z,519.00
2023-04-03T02:02:47.502Z,532.00
2023-04-03T02:03:47.516Z,531.00
2023-04-03T02:04:47.678Z,534.00
2023-04-03T02:05:47.553Z,530.00
2023-04-03T02:06:47.656Z,523.00
2023-04-03T02:07:47.598Z,520.00
2023-04-03T02:08:47.670Z,530.00
2023-04-03T02:09:47.636Z,538.00
2023-04-03T02:10:47.648Z,532.00
2023-04-03T02:11:47.668Z,522.00
2023-04-03T02:12:47.699Z,520.00
2023-04-03T02:13:47.720Z,519.00
2023-04-03T02:14:47.730Z,525.00
2023-04-03T02:15:47.744Z,528.00
2023-04-03T02:16:47.835Z,529.00
2023-04-03T02:17:47.820Z,522.00
2023-04-03T02:18:47.802Z,518.00
2023-04-03T02:19:47.834Z,534.00
2023-04-03T02:20:47.849Z,525.00
2023-04-03T02:21:47.869Z,529.00
2023-04-03T02:22:47.898Z,520.00
2023-04-03T02:23:47.898Z,518.00
2023-04-03T02:24:47.923Z,518.00
2023-04-03T02:25:47.946Z,515.00
2023-04-03T02:26:47.961Z,507.00
2023-04-03T02:27:48.179Z,519.00
2023-04-03T02:28:48.000Z,519.00
2023-04-03T02:29:48.024Z,537.00
2023-04-03T02:30:48.045Z,524.00
2023-04-03T02:31:48.046Z,520.00
2023-04-03T02:32:48.109Z,528.00
2023-04-03T02:33:48.083Z,529.00
2023-04-03T02:34:48.113Z,523.00
2023-04-03T02:35:48.172Z,519.00
2023-04-03T02:36:48.147Z,525.00
2023-04-03T02:37:48.165Z,515.00
2023-04-03T02:38:48.253Z,527.00
2023-04-03T02:39:48.297Z,518.00
2023-04-03T02:40:48.237Z,522.00
2023-04-03T02:41:48.242Z,527.00
2023-04-03T02:42:48.260Z,517.00
2023-04-03T02:43:48.277Z,540.00
2023-04-03T02:44:48.293Z,510.00
2023-04-03T02:45:48.339Z,527.00
2023-04-03T02:46:48.327Z,522.00
2023-04-03T02:47:48.424Z,516.00
2023-04-03T02:48:48.371Z,519.00
2023-04-03T02:49:49.177Z,522.00
2023-04-03T02:50:48.393Z,529.00
2023-04-03T02:51:48.409Z,520.00
2023-04-03T02:52:48.428Z,521.00
2023-04-03T02:53:48.429Z,515.00
2023-04-03T02:54:48.458Z,512.00
2023-04-03T02:55:49.178Z,519.00
2023-04-03T02:56:48.511Z,518.00
2023-04-03T02:57:48.520Z,517.00
2023-04-03T02:58:48.520Z,533.00
2023-04-03T02:59:48.535Z,530.00
2023-04-03T03:00:48.545Z,534.00
2023-04-03T03:01:48.598Z,519.00
2023-04-03T03:02:48.633Z,507.00
2023-04-03T03:03:48.652Z,508.00
2023-04-03T03:04:48.737Z,515.00
2023-04-03T03:05:48.730Z,534.00
2023-04-03T03:06:48.791Z,522.00
2023-04-03T03:07:48.808Z,522.00
2023-04-03T03:08:48.853Z,518.00
2023-04-03T03:09:48.896Z,520.00
2023-04-03T03:10:48.944Z,514.00
2023-04-03T03:11:48.942Z,521.00
2023-04-03T03:12:48.972Z,512.00
2023-04-03T03:13:48.987Z,524.00
2023-04-03T03:14:49.003Z,523.00
2023-04-03T03:15:49.064Z,522.00
2023-04-03T03:16:49.056Z,520.00
2023-04-03T03:17:49.106Z,521.00
2023-04-03T03:18:49.089Z,522.00
2023-04-03T03:19:49.096Z,513.00
2023-04-03T03:20:49.119Z,524.00
2023-04-03T03:21:49.133Z,518.00
2023-04-03T03:22:49.165Z,515.00
2023-04-03T03:23:49.174Z,527.00
2023-04-03T03:24:49.203Z,519.00
2023-04-03T03:25:49.213Z,532.00
2023-04-03T03:26:49.241Z,523.00
2023-04-03T03:27:49.304Z,523.00
2023-04-03T03:28:49.287Z,535.00
2023-04-03T03:29:49.299Z,523.00
2023-04-03T03:30:49.315Z,531.00
2023-04-03T03:31:49.430Z,527.00
2023-04-03T03:32:49.387Z,520.00
2023-04-03T03:33:49.380Z,527.00
2023-04-03T03:34:49.420Z,522.00
2023-04-03T03:35:49.542Z,522.00
2023-04-03T03:36:49.520Z,513.00
2023-04-03T03:37:49.568Z,521.00
2023-04-03T03:38:49.538Z,521.00
2023-04-03T03:39:49.572Z,521.00
2023-04-03T03:40:49.620Z,515.00
2023-04-03T03:41:49.599Z,524.00
2023-04-03T03:42:49.709Z,515.00
2023-04-03T03:43:49.743Z,509.00
2023-04-03T03:44:49.704Z,519.00
2023-04-03T03:45:49.749Z,526.00
2023-04-03T03:46:49.845Z,518.00
2023-04-03T03:47:49.907Z,512.00
2023-04-03T03:48:49.867Z,527.00
2023-04-03T03:49:49.877Z,526.00
2023-04-03T03:50:49.912Z,519.00
2023-04-03T03:51:49.920Z,528.00
2023-04-03T03:52:49.947Z,525.00
2023-04-03T03:53:49.967Z,517.00
2023-04-03T03:54:49.976Z,518.00
2023-04-03T03:55:50.004Z,526.00
2023-04-03T03:56:50.048Z,521.00
2023-04-03T03:57:50.045Z,517.00
2023-04-03T03:58:50.122Z,525.00
2023-04-03T03:59:50.042Z,525.00
2023-04-03T04:00:50.064Z,527.00
2023-04-03T04:01:50.105Z,521.00
2023-04-03T04:02:50.117Z,529.00
2023-04-03T04:03:50.262Z,516.00
2023-04-03T04:04:50.106Z,530.00
2023-04-03T04:05:50.122Z,531.00
2023-04-03T04:06:50.124Z,513.00
2023-04-03T04:07:50.140Z,518.00
2023-04-03T04:08:50.156Z,511.00
2023-04-03T04:09:50.168Z,518.00
2023-04-03T04:10:50.191Z,523.00
2023-04-03T04:11:50.206Z,528.00
2023-04-03T04:12:50.288Z,524.00
2023-04-03T04:13:50.263Z,534.00
2023-04-03T04:14:50.292Z,506.00
2023-04-03T04:15:50.348Z,524.00
2023-04-03T04:16:50.411Z,516.00
2023-04-03T04:17:50.453Z,510.00
2023-04-03T04:18:50.510Z,524.00
2023-04-03T04:19:50.547Z,512.00
2023-04-03T04:20:50.606Z,520.00
2023-04-03T04:21:50.562Z,502.00
2023-04-03T04:22:50.605Z,518.00
2023-04-03T04:23:50.658Z,522.00
2023-04-03T04:24:50.711Z,534.00
2023-04-03T04:25:50.738Z,527.00
2023-04-03T04:26:50.755Z,518.00
2023-04-03T04:27:50.789Z,512.00
2023-04-03T04:28:50.784Z,513.00
2023-04-03T04:29:50.800Z,514.00
2023-04-03T04:30:50.840Z,508.00
2023-04-03T04:31:50.853Z,511.00
2023-04-03T04:32:50.929Z,515.00
2023-04-03T04:33:50.959Z,519.00
2023-04-03T04:34:50.962Z,510.00
2023-04-03T04:35:50.976Z,509.00
2023-04-03T04:36:51.043Z,507.00
2023-04-03T04:37:51.022Z,515.00
2023-04-03T04:38:51.022Z,515.00
2023-04-03T04:39:51.039Z,530.00
2023-04-03T04:40:51.063Z,522.00
2023-04-03T04:41:51.083Z,532.00
2023-04-03T04:42:51.138Z,527.00
2023-04-03T04:43:51.176Z,515.00
2023-04-03T04:44:51.274Z,535.00
2023-04-03T04:45:52.258Z,515.00
2023-04-03T04:46:51.278Z,513.00
2023-04-03T04:47:51.329Z,528.00
2023-04-03T04:48:51.327Z,519.00
2023-04-03T04:49:51.360Z,527.00
2023-04-03T04:50:51.392Z,509.00
2023-04-03T04:51:52.515Z,501.00
2023-04-03T04:52:51.448Z,523.00
2023-04-03T04:53:52.352Z,511.00
2023-04-03T04:54:51.610Z,515.00
2023-04-03T04:55:51.573Z,516.00
2023-04-03T04:56:51.696Z,515.00
2023-04-03T04:57:51.665Z,512.00
2023-04-03T04:58:51.703Z,509.00
2023-04-03T04:59:51.755Z,513.00
2023-04-03T05:00:51.821Z,522.00
2023-04-03T05:01:51.955Z,506.00
2023-04-03T05:02:51.963Z,518.00
2023-04-03T05:03:51.982Z,522.00
2023-04-03T05:04:52.011Z,518.00
2023-04-03T05:05:52.003Z,524.00
2023-04-03T05:06:52.099Z,529.00
2023-04-03T05:07:52.089Z,523.00
2023-04-03T05:08:52.133Z,508.00
2023-04-03T05:09:52.150Z,509.00
2023-04-03T05:10:53.692Z,516.00
2023-04-03T05:11:52.183Z,516.00
2023-04-03T05:12:52.186Z,520.00
2023-04-03T05:13:52.192Z,520.00
2023-04-03T05:14:52.240Z,516.00
2023-04-03T05:15:52.287Z,507.00
2023-04-03T05:16:52.754Z,521.00
2023-04-03T05:17:52.279Z,528.00
2023-04-03T05:18:52.266Z,519.00
2023-04-03T05:19:52.277Z,513.00
2023-04-03T05:20:52.294Z,529.00
2023-04-03T05:21:52.313Z,519.00
2023-04-03T05:22:52.322Z,512.00
2023-04-03T05:23:52.342Z,531.00
2023-04-03T05:24:52.346Z,526.00
2023-04-03T05:25:52.350Z,505.00
2023-04-03T05:26:52.361Z,511.00
2023-04-03T05:27:52.363Z,515.00
2023-04-03T05:28:52.381Z,514.00
2023-04-03T05:29:52.456Z,514.00
2023-04-03T05:30:52.393Z,514.00
2023-04-03T05:31:52.831Z,528.00
2023-04-03T05:32:52.484Z,518.00
2023-04-03T05:33:53.239Z,523.00
2023-04-03T05:34:52.423Z,524.00
2023-04-03T05:35:52.447Z,514.00
2023-04-03T05:36:52.433Z,520.00
2023-04-03T05:37:52.456Z,517.00
2023-04-03T05:38:52.437Z,512.00
2023-04-03T05:39:52.461Z,532.00
2023-04-03T05:40:52.459Z,510.00
2023-04-03T05:41:52.462Z,500.00
2023-04-03T05:42:52.472Z,504.00
2023-04-03T05:43:52.476Z,521.00
2023-04-03T05:44:53.240Z,513.00
2023-04-03T05:45:52.508Z,511.00
2023-04-03T05:46:52.502Z,515.00
2023-04-03T05:47:52.534Z,521.00
2023-04-03T05:48:52.510Z,504.00
2023-04-03T05:49:52.518Z,514.00
2023-04-03T05:50:52.928Z,503.00
2023-04-03T05:51:52.538Z,500.00
2023-04-03T05:52:52.528Z,519.00
2023-04-03T05:53:52.535Z,521.00
2023-04-03T05:54:52.536Z,526.00
2023-04-03T05:55:52.538Z,513.00
2023-04-03T05:56:52.582Z,511.00
2023-04-03T05:57:52.545Z,507.00
2023-04-03T05:58:52.555Z,522.00
2023-04-03T05:59:52.561Z,513.00
2023-04-03T06:00:52.668Z,525.00
2023-04-03T06:01:52.590Z,526.00
2023-04-03T06:02:53.328Z,510.00
2023-04-03T06:03:53.392Z,512.00
2023-04-03T06:04:52.706Z,507.00
2023-04-03T06:05:52.610Z,518.00
2023-04-03T06:06:52.646Z,527.00
2023-04-03T06:07:53.249Z,513.00
2023-04-03T06:08:52.591Z,525.00
2023-04-03T06:09:52.602Z,512.00
2023-04-03T06:10:53.232Z,513.00
2023-04-03T06:11:52.627Z,527.00
2023-04-03T06:12:52.617Z,510.00
2023-04-03T06:13:52.637Z,510.00
2023-04-03T06:14:52.638Z,519.00
2023-04-03T06:15:52.643Z,514.00
2023-04-03T06:16:52.700Z,511.00
2023-04-03T06:17:52.801Z,513.00
2023-04-03T06:18:52.654Z,510.00
2023-04-03T06:19:52.670Z,512.00
2023-04-03T06:20:52.674Z,516.00
2023-04-03T06:21:52.678Z,512.00
2023-04-03T06:22:52.696Z,511.00
2023-04-03T06:23:53.237Z,509.00
2023-04-03T06:24:52.741Z,511.00
2023-04-03T06:25:52.757Z,519.00
2023-04-03T06:26:52.807Z,509.00
2023-04-03T06:27:52.859Z,510.00
2023-04-03T06:28:53.029Z,519.00
2023-04-03T06:29:52.945Z,517.00
2023-04-03T06:30:53.884Z,527.00
2023-04-03T06:31:53.051Z,518.00
2023-04-03T06:32:53.142Z,509.00
2023-04-03T06:33:53.134Z,526.00
2023-04-03T06:34:53.811Z,513.00
2023-04-03T06:35:53.288Z,514.00
2023-04-03T06:36:53.414Z,507.00
2023-04-03T06:37:53.392Z,511.00
2023-04-03T06:38:54.245Z,508.00
2023-04-03T06:39:53.575Z,518.00
2023-04-03T06:40:53.567Z,520.00
2023-04-03T06:41:53.627Z,510.00
2023-04-03T06:42:53.695Z,513.00
2023-04-03T06:43:53.746Z,516.00
2023-04-03T06:44:53.819Z,511.00
2023-04-03T06:45:53.884Z,518.00
2023-04-03T06:46:53.960Z,517.00
2023-04-03T06:47:54.072Z,521.00
2023-04-03T06:48:54.060Z,506.00
2023-04-03T06:49:54.089Z,517.00
2023-04-03T06:50:54.139Z,509.00
2023-04-03T06:51:54.162Z,520.00
2023-04-03T06:52:54.231Z,515.00
2023-04-03T06:53:54.307Z,517.00
2023-04-03T06:54:54.343Z,515.00
2023-04-03T06:55:54.392Z,507.00
2023-04-03T06:56:54.481Z,517.00
2023-04-03T06:57:54.645Z,520.00
2023-04-03T06:58:54.563Z,513.00
2023-04-03T06:59:54.628Z,503.00
2023-04-03T07:00:54.693Z,510.00
2023-04-03T07:01:54.813Z,522.00
2023-04-03T07:02:54.835Z,504.00
2023-04-03T07:03:54.880Z,511.00
2023-04-03T07:04:54.996Z,508.00
2023-04-03T07:05:54.938Z,511.00
2023-04-03T07:06:54.975Z,506.00
2023-04-03T07:07:55.000Z,502.00
2023-04-03T07:08:55.052Z,511.00
2023-04-03T07:09:55.188Z,509.00
2023-04-03T07:10:55.213Z,509.00
2023-04-03T07:11:55.229Z,511.00
2023-04-03T07:12:55.369Z,515.00
2023-04-03T07:13:55.379Z,507.00
2023-04-03T07:14:55.508Z,508.00
2023-04-03T07:15:55.570Z,511.00
2023-04-03T07:16:55.582Z,510.00
2023-04-03T07:17:55.691Z,514.00
2023-04-03T07:18:55.710Z,502.00
2023-04-03T07:19:55.786Z,521.00
2023-04-03T07:20:55.863Z,507.00
2023-04-03T07:21:55.945Z,508.00
2023-04-03T07:22:56.041Z,512.00
2023-04-03T07:23:56.095Z,507.00
2023-04-03T07:24:56.175Z,521.00
2023-04-03T07:25:56.234Z,509.00
2023-04-03T07:26:56.304Z,520.00
2023-04-03T07:27:56.383Z,515.00
2023-04-03T07:28:56.537Z,505.00
2023-04-03T07:29:56.646Z,513.00
2023-04-03T07:30:56.558Z,514.00
2023-04-03T07:31:56.703Z,512.00
2023-04-03T07:32:56.721Z,509.00
2023-04-03T07:33:56.754Z,511.00
2023-04-03T07:34:56.845Z,509.00
2023-04-03T07:35:56.985Z,506.00
2023-04-03T07:36:56.985Z,504.00
2023-04-03T07:37:57.062Z,507.00
2023-04-03T07:38:57.131Z,504.00
2023-04-03T07:39:57.207Z,508.00
2023-04-03T07:40:57.283Z,507.00
2023-04-03T07:41:57.369Z,510.00
2023-04-03T07:42:57.441Z,504.00
2023-04-03T07:43:57.515Z,508.00
2023-04-03T07:44:57.578Z,508.00
2023-04-03T07:45:58.228Z,510.00
2023-04-03T07:46:57.717Z,520.00
2023-04-03T07:47:57.833Z,509.00
2023-04-03T07:48:58.678Z,505.00
2023-04-03T07:49:57.931Z,501.00
2023-04-03T07:50:58.002Z,508.00
2023-04-03T07:51:58.064Z,506.00
2023-04-03T07:52:58.133Z,506.00
2023-04-03T07:53:58.213Z,505.00
2023-04-03T07:54:58.347Z,507.00
2023-04-03T07:55:58.339Z,506.00
2023-04-03T07:56:58.437Z,507.00
2023-04-03T07:57:58.473Z,508.00
2023-04-03T07:58:58.606Z,505.00
2023-04-03T07:59:58.632Z,512.00
2023-04-03T08:00:58.693Z,503.00
2023-04-03T08:01:58.749Z,506.00
2023-04-03T08:02:58.930Z,507.00
2023-04-03T08:03:58.969Z,510.00
2023-04-03T08:04:59.038Z,513.00
2023-04-03T08:05:59.026Z,506.00
2023-04-03T08:06:59.096Z,510.00
2023-04-03T08:07:59.172Z,508.00
2023-04-03T08:08:59.236Z,510.00
2023-04-03T08:09:59.308Z,515.00
2023-04-03T08:10:59.384Z,507.00
2023-04-03T08:11:59.438Z,508.00
2023-04-03T08:12:59.513Z,511.00
2023-04-03T08:13:59.578Z,504.00
2023-04-03T08:14:59.680Z,504.00
2023-04-03T08:15:59.696Z,508.00
2023-04-03T08:16:59.942Z,509.00
2023-04-03T08:17:59.869Z,505.00
2023-04-03T08:18:59.898Z,510.00
2023-04-03T08:19:59.969Z,511.00
2023-04-03T08:21:00.035Z,509.00
2023-04-03T08:22:00.120Z,508.00
2023-04-03T08:23:00.160Z,514.00
2023-04-03T08:24:00.220Z,518.00
2023-04-03T08:25:00.277Z,503.00
2023-04-03T08:26:00.352Z,509.00
2023-04-03T08:27:00.400Z,505.00
2023-04-03T08:28:00.463Z,512.00
2023-04-03T08:29:00.540Z,505.00
2023-04-03T08:30:00.588Z,506.00
2023-04-03T08:31:00.695Z,507.00
2023-04-03T08:32:00.709Z,507.00
2023-04-03T08:33:00.787Z,505.00
2023-04-03T08:34:00.823Z,504.00
2023-04-03T08:35:00.864Z,506.00
2023-04-03T08:36:00.986Z,509.00
2023-04-03T08:37:00.972Z,508.00
2023-04-03T08:38:01.298Z,502.00
2023-04-03T08:39:01.085Z,510.00
2023-04-03T08:40:01.139Z,503.00
2023-04-03T08:41:01.205Z,506.00
2023-04-03T08:42:01.261Z,503.00
2023-04-03T08:43:01.308Z,506.00
2023-04-03T08:44:01.357Z,505.00
2023-04-03T08:45:01.419Z,506.00
2023-04-03T08:46:01.461Z,507.00
2023-04-03T08:47:01.611Z,506.00
2023-04-03T08:48:01.666Z,509.00
2023-04-03T08:49:01.629Z,507.00
2023-04-03T08:50:01.668Z,504.00
2023-04-03T08:51:03.693Z,510.00
2023-04-03T08:52:01.764Z,511.00
2023-04-03T08:53:01.808Z,513.00
2023-04-03T08:54:01.860Z,503.00
2023-04-03T08:55:01.917Z,509.00
2023-04-03T08:56:01.954Z,510.00
2023-04-03T08:57:02.018Z,501.00
2023-04-03T08:58:02.037Z,505.00
2023-04-03T08:59:02.081Z,505.00
2023-04-03T09:00:02.131Z,505.00
2023-04-03T09:01:02.206Z,510.00
2023-04-03T09:02:02.872Z,508.00
2023-04-03T09:03:02.474Z,511.00
2023-04-03T09:04:02.361Z,509.00
2023-04-03T09:05:02.362Z,513.00
2023-04-03T09:06:02.401Z,509.00
2023-04-03T09:07:02.438Z,505.00
2023-04-03T09:08:02.486Z,504.00
2023-04-03T09:09:02.518Z,516.00
2023-04-03T09:10:02.555Z,514.00
2023-04-03T09:11:02.601Z,511.00
2023-04-03T09:12:02.644Z,509.00
2023-04-03T09:13:02.685Z,509.00
2023-04-03T09:14:02.812Z,515.00
2023-04-03T09:15:02.750Z,506.00
2023-04-03T09:16:02.825Z,503.00
2023-04-03T09:17:02.829Z,511.00
2023-04-03T09:18:02.936Z,509.00
2023-04-03T09:19:03.067Z,500.00
2023-04-03T09:20:03.824Z,515.00
2023-04-03T09:21:02.990Z,506.00
2023-04-03T09:22:03.036Z,507.00
2023-04-03T09:23:03.318Z,509.00
2023-04-03T09:24:03.125Z,509.00
2023-04-03T09:25:03.153Z,513.00
2023-04-03T09:26:03.190Z,510.00
2023-04-03T09:27:03.315Z,511.00
2023-04-03T09:28:03.272Z,508.00
2023-04-03T09:29:03.320Z,512.00
2023-04-03T09:30:03.342Z,509.00
2023-04-03T09:31:03.434Z,516.00
2023-04-03T09:32:03.423Z,512.00
2023-04-03T09:33:03.578Z,510.00
2023-04-03T09:34:03.491Z,509.00
2023-04-03T09:35:09.635Z,511.00
2023-04-03T09:36:04.597Z,511.00
2023-04-03T09:37:03.537Z,508.00
2023-04-03T09:38:03.624Z,512.00
2023-04-03T09:39:03.526Z,512.00
2023-04-03T09:40:03.535Z,516.00
2023-04-03T09:41:03.534Z,511.00
2023-04-03T09:42:03.534Z,501.00
2023-04-03T09:43:03.521Z,508.00
2023-04-03T09:44:03.532Z,511.00
2023-04-03T09:45:03.554Z,511.00
2023-04-03T09:46:03.650Z,514.00
2023-04-03T09:47:03.657Z,509.00
2023-04-03T09:48:03.870Z,513.00
2023-04-03T09:50:03.568Z,514.00
2023-04-03T09:51:03.649Z,517.00
2023-04-03T09:52:03.567Z,511.00
2023-04-03T09:53:03.570Z,509.00
2023-04-03T09:54:03.571Z,509.00
2023-04-03T09:55:03.698Z,514.00
2023-04-03T09:56:03.600Z,505.00
2023-04-03T09:57:04.400Z,507.00
2023-04-03T09:58:03.619Z,514.00
2023-04-03T09:59:03.625Z,510.00
2023-04-03T10:00:03.641Z,509.00
2023-04-03T10:01:03.716Z,504.00
2023-04-03T10:02:04.335Z,512.00
2023-04-03T10:03:04.375Z,513.00
2023-04-03T10:04:03.695Z,517.00
2023-04-03T10:06:03.682Z,512.00
2023-04-03T10:07:03.780Z,514.00
2023-04-03T10:08:04.159Z,509.00
2023-04-03T10:09:03.713Z,513.00
2023-04-03T10:10:03.715Z,510.00
2023-04-03T10:11:03.732Z,512.00
2023-04-03T10:12:03.737Z,510.00
2023-04-03T10:13:04.319Z,513.00
2023-04-03T10:14:03.759Z,512.00
2023-04-03T10:15:03.754Z,502.00
2023-04-03T10:16:03.753Z,504.00
2023-04-03T10:17:03.829Z,507.00
2023-04-03T10:18:14.383Z,507.00
2023-04-03T10:19:04.782Z,507.00
2023-04-03T10:20:03.793Z,507.00
2023-04-03T10:21:05.019Z,507.00
2023-04-03T10:22:03.805Z,509.00
2023-04-03T10:23:03.897Z,512.00
2023-04-03T10:24:03.827Z,513.00
2023-04-03T10:25:03.826Z,510.00
2023-04-03T10:26:03.826Z,506.00
2023-04-03T10:27:03.830Z,510.00
2023-04-03T10:28:03.843Z,509.00
2023-04-03T10:29:03.860Z,504.00
2023-04-03T10:30:03.870Z,514.00
2023-04-03T10:31:03.886Z,506.00
2023-04-03T10:32:03.861Z,502.00
2023-04-03T10:33:04.045Z,505.00
2023-04-03T10:34:03.984Z,506.00
2023-04-03T10:35:05.352Z,503.00
2023-04-03T10:36:03.959Z,512.00
2023-04-03T10:37:04.026Z,508.00
2023-04-03T10:38:03.984Z,506.00
2023-04-03T10:39:04.121Z,505.00
2023-04-03T10:40:04.045Z,508.00
2023-04-03T10:41:04.066Z,501.00
2023-04-03T10:42:15.207Z,506.00
2023-04-03T10:43:05.174Z,506.00
2023-04-03T10:44:04.100Z,507.00
2023-04-03T10:45:04.090Z,508.00
2023-04-03T10:46:04.127Z,506.00
2023-04-03T10:47:04.120Z,499.00
2023-04-03T10:48:04.172Z,501.00
2023-04-03T10:49:04.101Z,508.00
2023-04-03T10:50:04.111Z,510.00
2023-04-03T10:51:04.831Z,509.00
2023-04-03T10:52:04.188Z,506.00
2023-04-03T10:53:04.343Z,507.00
2023-04-03T10:54:04.124Z,507.00
2023-04-03T10:55:04.195Z,509.00
2023-04-03T10:56:04.834Z,506.00
2023-04-03T10:57:11.692Z,510.00
2023-04-03T10:58:05.110Z,510.00
2023-04-03T10:59:04.105Z,511.00
2023-04-03T11:00:04.208Z,508.00
2023-04-03T11:01:04.129Z,505.00
2023-04-03T11:02:04.837Z,504.00
2023-04-03T11:03:04.190Z,514.00
2023-04-03T11:04:04.302Z,510.00
2023-04-03T11:05:04.101Z,507.00
2023-04-03T11:06:04.099Z,508.00
2023-04-03T11:07:04.098Z,517.00
2023-04-03T11:08:04.152Z,507.00
2023-04-03T11:09:04.110Z,508.00
2023-04-03T11:10:04.094Z,508.00
2023-04-03T11:11:04.189Z,509.00
2023-04-03T11:12:04.106Z,503.00
2023-04-03T11:13:04.170Z,508.00
2023-04-03T11:14:04.113Z,513.00
2023-04-03T11:15:04.094Z,507.00
2023-04-03T11:16:04.205Z,510.00
2023-04-03T11:17:04.111Z,508.00
2023-04-03T11:18:04.179Z,508.00
2023-04-03T11:19:04.115Z,513.00
2023-04-03T11:20:04.114Z,507.00
2023-04-03T11:21:04.121Z,506.00
2023-04-03T11:22:04.114Z,502.00
2023-04-03T11:23:04.117Z,511.00
2023-04-03T11:24:04.119Z,511.00
2023-04-03T11:25:04.112Z,506.00
2023-04-03T11:26:04.127Z,512.00
2023-04-03T11:27:04.206Z,512.00
2023-04-03T11:28:04.166Z,510.00
2023-04-03T11:29:04.119Z,509.00
2023-04-03T11:30:04.122Z,513.00
2023-04-03T11:31:04.224Z,505.00
2023-04-03T11:32:04.130Z,506.00
2023-04-03T11:33:04.157Z,508.00
2023-04-03T11:34:04.121Z,506.00
2023-04-03T11:35:04.121Z,506.00
2023-04-03T11:36:12.483Z,511.00
2023-04-03T11:37:05.117Z,511.00
2023-04-03T11:38:04.189Z,512.00
2023-04-03T11:39:04.112Z,513.00
2023-04-03T11:40:04.115Z,512.00
2023-04-03T11:41:04.140Z,511.00
2023-04-03T11:42:12.889Z,513.00
2023-04-03T11:43:05.462Z,513.00
2023-04-03T11:44:04.432Z,514.00
2023-04-03T11:45:04.487Z,513.00
2023-04-03T11:46:04.546Z,506.00
2023-04-03T11:47:04.701Z,514.00
2023-04-03T11:48:20.894Z,513.00
2023-04-03T11:49:05.868Z,514.00
2023-04-03T11:50:05.024Z,514.00
2023-04-03T11:51:05.028Z,508.00
2023-04-03T11:52:04.985Z,508.00
2023-04-03T11:53:05.136Z,509.00
2023-04-03T11:54:05.106Z,505.00
2023-04-03T11:55:05.161Z,509.00
2023-04-03T11:56:05.296Z,509.00
2023-04-03T11:57:05.359Z,506.00
2023-04-03T11:58:05.334Z,507.00
2023-04-03T11:59:05.500Z,506.00
2023-04-03T12:00:05.461Z,507.00
2023-04-03T12:01:05.511Z,504.00
2023-04-03T12:02:05.605Z,507.00
2023-04-03T12:03:05.687Z,507.00
2023-04-03T12:04:05.756Z,510.00
2023-04-03T12:05:05.721Z,509.00
2023-04-03T12:06:05.788Z,503.00
2023-04-03T12:07:05.839Z,509.00
2023-04-03T12:08:05.884Z,505.00
2023-04-03T12:09:05.942Z,504.00
2023-04-03T12:10:06.006Z,506.00
2023-04-03T12:11:06.033Z,505.00
2023-04-03T12:12:06.860Z,508.00
2023-04-03T12:13:06.125Z,510.00
2023-04-03T12:14:06.169Z,507.00
2023-04-03T12:15:06.299Z,506.00
2023-04-03T12:16:06.258Z,508.00
2023-04-03T12:17:06.363Z,511.00
2023-04-03T12:18:06.398Z,509.00
2023-04-03T12:19:06.410Z,513.00
2023-04-03T12:20:06.463Z,513.00
2023-04-03T12:21:06.516Z,515.00
2023-04-03T12:22:06.570Z,509.00
2023-04-03T12:23:07.280Z,512.00
2023-04-03T12:24:06.660Z,512.00
2023-04-03T12:25:06.712Z,512.00
2023-04-03T12:26:06.864Z,507.00
2023-04-03T12:27:06.817Z,515.00
2023-04-03T12:28:06.911Z,510.00
2023-04-03T12:29:06.934Z,512.00
2023-04-03T12:30:06.983Z,512.00
2023-04-03T12:31:07.139Z,511.00